This is the latest recevied weather packets stored in our database for station/object K7SKM. If no packets are shown the sender has not sent any weather packets the latest 10 day(s).
| Time | Temp. | Humidity | Pressure | Rain* | Wind** | Luminosity | Snow |
|---|---|---|---|---|---|---|---|
| 1777745201 | 18.89° C | 58% | 1021.2 hPa | 0 mm | - | 347 W/m² | - |
| 1777744899 | 18.89° C | 58% | 1021.1 hPa | 0 mm | - | 355 W/m² | - |
| 1777744597 | 17.78° C | 61% | 1021.2 hPa | 0 mm | - | 338 W/m² | - |
| 1777744293 | 18.33° C | 60% | 1021.3 hPa | 0 mm | - | 309 W/m² | - |
| 1777743991 | 18.33° C | 60% | 1021 hPa | 0 mm | - | 302 W/m² | - |
| 1777743687 | 18.33° C | 60% | 1021.2 hPa | 0 mm | - | 280 W/m² | - |
| 1777743384 | 17.78° C | 60% | 1021.2 hPa | 0 mm | - | 230 W/m² | - |
| 1777743082 | 18.33° C | 61% | 1021.1 hPa | 0 mm | - | 227 W/m² | - |
| 1777742779 | 17.22° C | 63% | 1021.2 hPa | 0 mm | - | 248 W/m² | - |
| 1777742476 | 17.78° C | 64% | 1021.4 hPa | 0 mm | - | 238 W/m² | - |
| 1777742171 | 16.67° C | 66% | 1021.5 hPa | 0 mm | - | 243 W/m² | - |
| 1777741869 | 16.11° C | 67% | 1021.4 hPa | 0 mm | - | 232 W/m² | - |
| 1777741565 | 15° C | 71% | 1021.6 hPa | 0 mm | - | 204 W/m² | - |
| 1777741262 | 15° C | 71% | 1021.4 hPa | 0 mm | - | 226 W/m² | - |
| 1777740959 | 15.56° C | 68% | 1021.4 hPa | 0 mm | - | 167 W/m² | - |
| 1777740656 | 15° C | 70% | 1021.3 hPa | 0 mm | - | 151 W/m² | - |
| 1777740352 | 15.56° C | 70% | 1021.4 hPa | 0 mm | - | 146 W/m² | - |
| 1777740049 | 15° C | 70% | 1021.4 hPa | 0 mm | - | 140 W/m² | - |
| 1777739745 | 13.89° C | 73% | 1021.4 hPa | 0 mm | - | 151 W/m² | - |
| 1777739442 | 13.89° C | 72% | 1021.3 hPa | 0 mm | - | 154 W/m² | - |
| 1777739139 | 13.89° C | 73% | 1021.4 hPa | 0 mm | - | 165 W/m² | - |
| 1777738836 | 13.89° C | 73% | 1021.3 hPa | 0 mm | - | 153 W/m² | - |
| 1777738533 | 13.89° C | 73% | 1021.6 hPa | 0 mm | - | 130 W/m² | - |
| 1777738231 | 13.33° C | 75% | 1021.5 hPa | 0 mm | - | 121 W/m² | - |
| 1777737928 | 12.78° C | 76% | 1021.7 hPa | 0 mm | - | 107 W/m² | - |
* Rain latest hour (hover to see other rain measurements)
** Current wind speed in m/s (hover to see current wind gust speed)